sensor_id;sensor_type;location;lat;lon;timestamp;temperature;humidity
64918;HTU21D;52176;44.858;38.372;2023-02-17T00:00:58;-3.87;83.29
64918;HTU21D;52176;44.858;38.372;2023-02-17T00:03:24;-3.87;83.29
64918;HTU21D;52176;44.858;38.372;2023-02-17T00:05:50;-3.83;83.28
64918;HTU21D;52176;44.858;38.372;2023-02-17T00:08:16;-3.81;83.24
64918;HTU21D;52176;44.858;38.372;2023-02-17T00:10:42;-3.77;83.24
64918;HTU21D;52176;44.858;38.372;2023-02-17T00:13:08;-3.72;83.47
64918;HTU21D;52176;44.858;38.372;2023-02-17T00:15:37;-3.69;83.52
64918;HTU21D;52176;44.858;38.372;2023-02-17T00:18:03;-3.64;83.28
64918;HTU21D;52176;44.858;38.372;2023-02-17T00:20:29;-3.62;83.29
64918;HTU21D;52176;44.858;38.372;2023-02-17T00:22:55;-3.60;83.23
64918;HTU21D;52176;44.858;38.372;2023-02-17T00:25:21;-3.58;83.10
64918;HTU21D;52176;44.858;38.372;2023-02-17T00:27:47;-3.54;83.11
64918;HTU21D;52176;44.858;38.372;2023-02-17T00:30:13;-3.53;83.05
64918;HTU21D;52176;44.858;38.372;2023-02-17T00:32:39;-3.51;83.06
64918;HTU21D;52176;44.858;38.372;2023-02-17T00:35:05;-3.46;83.07
64918;HTU21D;52176;44.858;38.372;2023-02-17T00:37:34;-3.43;83.04
64918;HTU21D;52176;44.858;38.372;2023-02-17T00:40:01;-3.40;82.97
64918;HTU21D;52176;44.858;38.372;2023-02-17T00:42:27;-3.38;82.96
64918;HTU21D;52176;44.858;38.372;2023-02-17T00:44:53;-3.35;82.91
64918;HTU21D;52176;44.858;38.372;2023-02-17T00:47:19;-3.31;82.87
64918;HTU21D;52176;44.858;38.372;2023-02-17T00:49:46;-3.27;82.84
64918;HTU21D;52176;44.858;38.372;2023-02-17T00:52:12;-3.23;82.77
64918;HTU21D;52176;44.858;38.372;2023-02-17T00:54:38;-3.20;82.64
64918;HTU21D;52176;44.858;38.372;2023-02-17T00:57:05;-3.17;82.57
64918;HTU21D;52176;44.858;38.372;2023-02-17T00:59:31;-3.16;82.50
64918;HTU21D;52176;44.858;38.372;2023-02-17T01:01:57;-3.16;82.46
64918;HTU21D;52176;44.858;38.372;2023-02-17T01:04:23;-3.13;82.42
64918;HTU21D;52176;44.858;38.372;2023-02-17T01:06:49;-3.13;82.38
64918;HTU21D;52176;44.858;38.372;2023-02-17T01:09:15;-3.13;82.36
64918;HTU21D;52176;44.858;38.372;2023-02-17T01:11:42;-3.15;82.41
64918;HTU21D;52176;44.858;38.372;2023-02-17T01:14:11;-3.11;82.41
64918;HTU21D;52176;44.858;38.372;2023-02-17T01:16:40;-3.10;82.43
64918;HTU21D;52176;44.858;38.372;2023-02-17T01:19:08;-3.07;82.42
64918;HTU21D;52176;44.858;38.372;2023-02-17T01:21:36;-3.04;82.29
64918;HTU21D;52176;44.858;38.372;2023-02-17T01:24:04;-3.01;82.25
64918;HTU21D;52176;44.858;38.372;2023-02-17T01:26:32;-2.97;82.18
64918;HTU21D;52176;44.858;38.372;2023-02-17T01:29:00;-2.94;82.04
64918;HTU21D;52176;44.858;38.372;2023-02-17T01:31:26;-2.93;81.94
64918;HTU21D;52176;44.858;38.372;2023-02-17T01:33:55;-2.91;81.91
64918;HTU21D;52176;44.858;38.372;2023-02-17T01:36:21;-2.92;81.84
64918;HTU21D;52176;44.858;38.372;2023-02-17T01:38:48;-2.93;81.82
64918;HTU21D;52176;44.858;38.372;2023-02-17T01:41:19;-2.93;81.78
64918;HTU21D;52176;44.858;38.372;2023-02-17T01:46:36;-2.90;81.80
64918;HTU21D;52176;44.858;38.372;2023-02-17T01:49:16;-2.88;81.88
64918;HTU21D;52176;44.858;38.372;2023-02-17T01:51:43;-2.84;81.84
64918;HTU21D;52176;44.858;38.372;2023-02-17T01:54:19;-2.81;81.77
64918;HTU21D;52176;44.858;38.372;2023-02-17T01:56:47;-2.77;81.65
64918;HTU21D;52176;44.858;38.372;2023-02-17T01:59:19;-2.73;81.69
64918;HTU21D;52176;44.858;38.372;2023-02-17T02:01:50;-2.69;81.65
64918;HTU21D;52176;44.858;38.372;2023-02-17T02:04:20;-2.65;81.65
64918;HTU21D;52176;44.858;38.372;2023-02-17T02:06:48;-2.62;81.62
64918;HTU21D;52176;44.858;38.372;2023-02-17T02:09:19;-2.60;81.57
64918;HTU21D;52176;44.858;38.372;2023-02-17T02:11:50;-2.56;81.46
64918;HTU21D;52176;44.858;38.372;2023-02-17T02:14:17;-2.52;81.48
64918;HTU21D;52176;44.858;38.372;2023-02-17T02:22:51;-2.49;81.42
64918;HTU21D;52176;44.858;38.372;2023-02-17T02:37:00;-2.35;81.32
64918;HTU21D;52176;44.858;38.372;2023-02-17T02:39:32;-2.32;81.39
64918;HTU21D;52176;44.858;38.372;2023-02-17T02:42:09;-2.29;81.37
64918;HTU21D;52176;44.858;38.372;2023-02-17T02:44:36;-2.28;81.35
64918;HTU21D;52176;44.858;38.372;2023-02-17T02:50:06;-2.23;81.33
64918;HTU21D;52176;44.858;38.372;2023-02-17T02:58:27;-2.15;81.33
64918;HTU21D;52176;44.858;38.372;2023-02-17T03:01:08;-2.13;81.29
64918;HTU21D;52176;44.858;38.372;2023-02-17T03:03:52;-2.12;81.30
64918;HTU21D;52176;44.858;38.372;2023-02-17T03:06:26;-2.08;81.26
64918;HTU21D;52176;44.858;38.372;2023-02-17T03:08:59;-2.07;81.24
64918;HTU21D;52176;44.858;38.372;2023-02-17T03:11:28;-2.06;81.25
64918;HTU21D;52176;44.858;38.372;2023-02-17T03:16:27;-2.08;81.23
64918;HTU21D;52176;44.858;38.372;2023-02-17T03:18:53;-2.09;81.26
64918;HTU21D;52176;44.858;38.372;2023-02-17T03:21:21;-2.10;81.30
64918;HTU21D;52176;44.858;38.372;2023-02-17T03:23:47;-2.12;81.30
64918;HTU21D;52176;44.858;38.372;2023-02-17T03:26:13;-2.14;81.33
64918;HTU21D;52176;44.858;38.372;2023-02-17T03:28:39;-2.14;81.43
64918;HTU21D;52176;44.858;38.372;2023-02-17T03:31:05;-2.14;81.46
64918;HTU21D;52176;44.858;38.372;2023-02-17T03:33:31;-2.14;81.49
64918;HTU21D;52176;44.858;38.372;2023-02-17T03:35:57;-2.14;81.51
64918;HTU21D;52176;44.858;38.372;2023-02-17T03:38:22;-2.13;81.49
64918;HTU21D;52176;44.858;38.372;2023-02-17T03:40:48;-2.12;81.53
64918;HTU21D;52176;44.858;38.372;2023-02-17T03:43:15;-2.09;81.55
64918;HTU21D;52176;44.858;38.372;2023-02-17T03:45:41;-2.06;81.57
64918;HTU21D;52176;44.858;38.372;2023-02-17T03:48:06;-2.01;81.57
64918;HTU21D;52176;44.858;38.372;2023-02-17T03:50:32;-1.98;81.58
64918;HTU21D;52176;44.858;38.372;2023-02-17T03:52:58;-1.92;81.52
64918;HTU21D;52176;44.858;38.372;2023-02-17T03:55:24;-1.87;81.50
64918;HTU21D;52176;44.858;38.372;2023-02-17T03:57:50;-1.83;81.48
64918;HTU21D;52176;44.858;38.372;2023-02-17T04:00:17;-1.79;81.49
64918;HTU21D;52176;44.858;38.372;2023-02-17T04:02:43;-1.76;81.46
64918;HTU21D;52176;44.858;38.372;2023-02-17T04:05:09;-1.72;81.46
64918;HTU21D;52176;44.858;38.372;2023-02-17T04:07:35;-1.69;81.46
64918;HTU21D;52176;44.858;38.372;2023-02-17T04:10:00;-1.65;81.43
64918;HTU21D;52176;44.858;38.372;2023-02-17T04:12:26;-1.62;81.41
64918;HTU21D;52176;44.858;38.372;2023-02-17T04:14:52;-1.60;81.41
64918;HTU21D;52176;44.858;38.372;2023-02-17T04:17:18;-1.59;81.44
64918;HTU21D;52176;44.858;38.372;2023-02-17T04:19:44;-1.56;81.43
64918;HTU21D;52176;44.858;38.372;2023-02-17T04:22:10;-1.56;81.43
64918;HTU21D;52176;44.858;38.372;2023-02-17T04:24:36;-1.57;81.46
64918;HTU21D;52176;44.858;38.372;2023-02-17T04:27:03;-1.55;81.47
64918;HTU21D;52176;44.858;38.372;2023-02-17T04:29:30;-1.53;81.50
64918;HTU21D;52176;44.858;38.372;2023-02-17T04:31:56;-1.53;81.55
64918;HTU21D;52176;44.858;38.372;2023-02-17T04:34:22;-1.50;81.59
64918;HTU21D;52176;44.858;38.372;2023-02-17T04:36:48;-1.47;81.63
64918;HTU21D;52176;44.858;38.372;2023-02-17T04:39:13;-1.46;81.66
64918;HTU21D;52176;44.858;38.372;2023-02-17T04:41:39;-1.43;81.73
64918;HTU21D;52176;44.858;38.372;2023-02-17T04:44:05;-1.41;81.73
64918;HTU21D;52176;44.858;38.372;2023-02-17T04:46:31;-1.39;81.75
64918;HTU21D;52176;44.858;38.372;2023-02-17T04:48:57;-1.36;81.80
64918;HTU21D;52176;44.858;38.372;2023-02-17T04:51:23;-1.34;81.78
64918;HTU21D;52176;44.858;38.372;2023-02-17T04:53:49;-1.31;81.81
64918;HTU21D;52176;44.858;38.372;2023-02-17T04:56:15;-1.27;81.81
64918;HTU21D;52176;44.858;38.372;2023-02-17T04:58:41;-1.21;81.78
64918;HTU21D;52176;44.858;38.372;2023-02-17T05:01:07;-1.16;81.78
64918;HTU21D;52176;44.858;38.372;2023-02-17T05:03:33;-1.13;81.76
64918;HTU21D;52176;44.858;38.372;2023-02-17T05:05:59;-1.09;81.73
64918;HTU21D;52176;44.858;38.372;2023-02-17T05:08:25;-1.04;81.70
64918;HTU21D;52176;44.858;38.372;2023-02-17T05:10:51;-1.00;81.67
64918;HTU21D;52176;44.858;38.372;2023-02-17T05:13:18;-0.97;81.67
64918;HTU21D;52176;44.858;38.372;2023-02-17T05:15:45;-0.95;81.65
64918;HTU21D;52176;44.858;38.372;2023-02-17T05:18:12;-0.93;81.65
64918;HTU21D;52176;44.858;38.372;2023-02-17T05:20:38;-0.90;81.68
64918;HTU21D;52176;44.858;38.372;2023-02-17T05:23:04;-0.88;81.72
64918;HTU21D;52176;44.858;38.372;2023-02-17T05:25:30;-0.86;81.76
64918;HTU21D;52176;44.858;38.372;2023-02-17T05:27:56;-0.83;81.74
64918;HTU21D;52176;44.858;38.372;2023-02-17T05:30:23;-0.79;81.76
64918;HTU21D;52176;44.858;38.372;2023-02-17T05:32:49;-0.75;81.78
64918;HTU21D;52176;44.858;38.372;2023-02-17T05:35:14;-0.72;81.82
64918;HTU21D;52176;44.858;38.372;2023-02-17T05:37:40;-0.70;81.82
64918;HTU21D;52176;44.858;38.372;2023-02-17T05:40:07;-0.67;81.85
64918;HTU21D;52176;44.858;38.372;2023-02-17T05:42:33;-0.60;81.89
64918;HTU21D;52176;44.858;38.372;2023-02-17T05:44:59;-0.55;81.88
64918;HTU21D;52176;44.858;38.372;2023-02-17T05:47:26;-0.47;81.86
64918;HTU21D;52176;44.858;38.372;2023-02-17T05:49:52;-0.42;81.83
64918;HTU21D;52176;44.858;38.372;2023-02-17T05:52:18;-0.36;81.84
64918;HTU21D;52176;44.858;38.372;2023-02-17T05:54:44;-0.32;81.78
64918;HTU21D;52176;44.858;38.372;2023-02-17T05:57:10;-0.31;81.88
64918;HTU21D;52176;44.858;38.372;2023-02-17T05:59:36;-0.31;81.93
64918;HTU21D;52176;44.858;38.372;2023-02-17T06:02:01;-0.29;81.99
64918;HTU21D;52176;44.858;38.372;2023-02-17T06:04:27;-0.25;82.02
64918;HTU21D;52176;44.858;38.372;2023-02-17T06:06:54;-0.21;82.02
64918;HTU21D;52176;44.858;38.372;2023-02-17T06:09:20;-0.17;82.07
64918;HTU21D;52176;44.858;38.372;2023-02-17T06:11:46;-0.12;82.07
64918;HTU21D;52176;44.858;38.372;2023-02-17T06:14:12;-0.11;82.07
64918;HTU21D;52176;44.858;38.372;2023-02-17T06:16:38;-0.06;82.11
64918;HTU21D;52176;44.858;38.372;2023-02-17T06:19:04;-0.02;82.11
64918;HTU21D;52176;44.858;38.372;2023-02-17T06:21:30;0.01;82.14
64918;HTU21D;52176;44.858;38.372;2023-02-17T06:23:56;0.04;82.22
64918;HTU21D;52176;44.858;38.372;2023-02-17T06:26:22;0.09;82.26
64918;HTU21D;52176;44.858;38.372;2023-02-17T06:28:48;0.15;82.25
64918;HTU21D;52176;44.858;38.372;2023-02-17T06:31:14;0.23;82.23
64918;HTU21D;52176;44.858;38.372;2023-02-17T06:33:40;0.29;82.25
64918;HTU21D;52176;44.858;38.372;2023-02-17T06:36:07;0.35;82.23
64918;HTU21D;52176;44.858;38.372;2023-02-17T06:38:33;0.44;82.23
64918;HTU21D;52176;44.858;38.372;2023-02-17T06:40:59;0.48;82.23
64918;HTU21D;52176;44.858;38.372;2023-02-17T06:43:25;0.54;82.25
64918;HTU21D;52176;44.858;38.372;2023-02-17T06:45:51;0.58;82.26
64918;HTU21D;52176;44.858;38.372;2023-02-17T06:48:17;0.62;82.27
64918;HTU21D;52176;44.858;38.372;2023-02-17T06:50:43;0.65;82.32
64918;HTU21D;52176;44.858;38.372;2023-02-17T06:53:09;0.69;82.34
64918;HTU21D;52176;44.858;38.372;2023-02-17T06:55:35;0.74;82.43
64918;HTU21D;52176;44.858;38.372;2023-02-17T06:58:03;0.78;82.46
64918;HTU21D;52176;44.858;38.372;2023-02-17T07:00:29;0.86;82.47
64918;HTU21D;52176;44.858;38.372;2023-02-17T07:02:55;0.93;82.51
64918;HTU21D;52176;44.858;38.372;2023-02-17T07:05:21;1.02;82.51
64918;HTU21D;52176;44.858;38.372;2023-02-17T07:07:47;1.13;82.50
64918;HTU21D;52176;44.858;38.372;2023-02-17T07:10:13;1.21;82.47
64918;HTU21D;52176;44.858;38.372;2023-02-17T07:12:40;1.29;82.46
64918;HTU21D;52176;44.858;38.372;2023-02-17T07:15:06;1.37;82.50
64918;HTU21D;52176;44.858;38.372;2023-02-17T07:17:32;1.47;82.56
64918;HTU21D;52176;44.858;38.372;2023-02-17T07:19:58;1.58;83.02
64918;HTU21D;52176;44.858;38.372;2023-02-17T07:22:24;1.71;83.18
64918;HTU21D;52176;44.858;38.372;2023-02-17T07:24:51;1.85;83.62
64918;HTU21D;52176;44.858;38.372;2023-02-17T07:27:17;1.97;83.46
64918;HTU21D;52176;44.858;38.372;2023-02-17T07:29:43;2.09;83.30
64918;HTU21D;52176;44.858;38.372;2023-02-17T07:32:09;2.20;83.12
64918;HTU21D;52176;44.858;38.372;2023-02-17T07:34:36;2.27;83.15
64918;HTU21D;52176;44.858;38.372;2023-02-17T07:37:02;2.32;83.10
64918;HTU21D;52176;44.858;38.372;2023-02-17T07:39:28;2.39;83.07
64918;HTU21D;52176;44.858;38.372;2023-02-17T07:41:54;2.49;82.90
64918;HTU21D;52176;44.858;38.372;2023-02-17T07:44:26;2.59;82.78
64918;HTU21D;52176;44.858;38.372;2023-02-17T07:46:52;2.68;82.80
64918;HTU21D;52176;44.858;38.372;2023-02-17T07:49:18;2.81;82.78
64918;HTU21D;52176;44.858;38.372;2023-02-17T07:51:44;2.88;82.71
64918;HTU21D;52176;44.858;38.372;2023-02-17T07:54:10;2.96;82.65
64918;HTU21D;52176;44.858;38.372;2023-02-17T07:56:38;3.01;82.59
64918;HTU21D;52176;44.858;38.372;2023-02-17T07:59:08;3.09;82.55
64918;HTU21D;52176;44.858;38.372;2023-02-17T08:01:34;3.15;82.59
64918;HTU21D;52176;44.858;38.372;2023-02-17T08:04:00;3.21;82.52
64918;HTU21D;52176;44.858;38.372;2023-02-17T08:06:26;3.26;82.49
64918;HTU21D;52176;44.858;38.372;2023-02-17T08:08:53;3.33;82.46
64918;HTU21D;52176;44.858;38.372;2023-02-17T08:11:39;3.40;82.42
64918;HTU21D;52176;44.858;38.372;2023-02-17T08:14:26;3.47;82.35
64918;HTU21D;52176;44.858;38.372;2023-02-17T08:16:52;3.54;82.31
64918;HTU21D;52176;44.858;38.372;2023-02-17T08:19:18;3.58;82.29
64918;HTU21D;52176;44.858;38.372;2023-02-17T08:21:44;3.65;82.26
64918;HTU21D;52176;44.858;38.372;2023-02-17T08:24:11;3.71;82.18
64918;HTU21D;52176;44.858;38.372;2023-02-17T08:26:37;3.76;82.16
64918;HTU21D;52176;44.858;38.372;2023-02-17T08:29:03;3.77;82.07
64918;HTU21D;52176;44.858;38.372;2023-02-17T08:31:32;3.82;82.07
64918;HTU21D;52176;44.858;38.372;2023-02-17T08:34:06;3.86;82.09
64918;HTU21D;52176;44.858;38.372;2023-02-17T08:36:32;3.92;82.10
64918;HTU21D;52176;44.858;38.372;2023-02-17T08:38:59;3.99;82.17
64918;HTU21D;52176;44.858;38.372;2023-02-17T08:41:33;4.04;82.08
64918;HTU21D;52176;44.858;38.372;2023-02-17T08:44:01;4.07;82.05
64918;HTU21D;52176;44.858;38.372;2023-02-17T08:46:28;4.13;82.05
64918;HTU21D;52176;44.858;38.372;2023-02-17T08:48:54;4.16;82.04
64918;HTU21D;52176;44.858;38.372;2023-02-17T08:51:22;4.22;82.07
64918;HTU21D;52176;44.858;38.372;2023-02-17T08:53:52;4.24;82.04
64918;HTU21D;52176;44.858;38.372;2023-02-17T08:56:22;4.27;81.99
64918;HTU21D;52176;44.858;38.372;2023-02-17T08:58:49;4.28;82.07
64918;HTU21D;52176;44.858;38.372;2023-02-17T09:01:15;4.30;82.15
64918;HTU21D;52176;44.858;38.372;2023-02-17T09:03:44;4.28;82.17
64918;HTU21D;52176;44.858;38.372;2023-02-17T09:06:10;4.26;82.20
64918;HTU21D;52176;44.858;38.372;2023-02-17T09:08:38;4.23;82.33
64918;HTU21D;52176;44.858;38.372;2023-02-17T09:11:06;4.21;82.49
64918;HTU21D;52176;44.858;38.372;2023-02-17T09:13:34;4.24;82.59
64918;HTU21D;52176;44.858;38.372;2023-02-17T09:16:00;4.28;82.62
64918;HTU21D;52176;44.858;38.372;2023-02-17T09:18:27;4.26;82.81
64918;HTU21D;52176;44.858;38.372;2023-02-17T09:20:53;4.23;82.75
64918;HTU21D;52176;44.858;38.372;2023-02-17T09:23:19;4.22;83.17
64918;HTU21D;52176;44.858;38.372;2023-02-17T09:25:46;4.22;83.23
64918;HTU21D;52176;44.858;38.372;2023-02-17T09:28:12;4.28;83.42
64918;HTU21D;52176;44.858;38.372;2023-02-17T09:30:41;4.37;83.53
64918;HTU21D;52176;44.858;38.372;2023-02-17T09:33:07;4.48;83.55
64918;HTU21D;52176;44.858;38.372;2023-02-17T09:35:34;4.63;83.46
64918;HTU21D;52176;44.858;38.372;2023-02-17T09:38:01;4.79;83.24
64918;HTU21D;52176;44.858;38.372;2023-02-17T09:43:11;5.15;82.59
64918;HTU21D;52176;44.858;38.372;2023-02-17T09:45:38;5.28;82.31
64918;HTU21D;52176;44.858;38.372;2023-02-17T09:48:07;5.39;82.05
64918;HTU21D;52176;44.858;38.372;2023-02-17T09:50:44;5.47;81.87
64918;HTU21D;52176;44.858;38.372;2023-02-17T09:53:16;5.51;81.74
64918;HTU21D;52176;44.858;38.372;2023-02-17T09:55:45;5.60;81.64
64918;HTU21D;52176;44.858;38.372;2023-02-17T09:58:22;5.63;81.62
64918;HTU21D;52176;44.858;38.372;2023-02-17T10:00:55;5.63;81.79
64918;HTU21D;52176;44.858;38.372;2023-02-17T10:03:23;5.78;80.98
64918;HTU21D;52176;44.858;38.372;2023-02-17T10:05:51;5.95;80.18
64918;HTU21D;52176;44.858;38.372;2023-02-17T10:08:21;6.14;79.77
64918;HTU21D;52176;44.858;38.372;2023-02-17T10:10:58;6.37;79.11
64918;HTU21D;52176;44.858;38.372;2023-02-17T10:13:26;6.33;78.53
64918;HTU21D;52176;44.858;38.372;2023-02-17T10:15:54;6.40;78.06
64918;HTU21D;52176;44.858;38.372;2023-02-17T10:18:34;6.45;77.81
64918;HTU21D;52176;44.858;38.372;2023-02-17T10:21:03;6.52;78.14
64918;HTU21D;52176;44.858;38.372;2023-02-17T10:23:32;6.60;78.21
64918;HTU21D;52176;44.858;38.372;2023-02-17T10:31:03;6.60;78.53
64918;HTU21D;52176;44.858;38.372;2023-02-17T10:33:37;6.68;78.91
64918;HTU21D;52176;44.858;38.372;2023-02-17T10:36:11;6.87;78.09
64918;HTU21D;52176;44.858;38.372;2023-02-17T10:38:52;6.67;78.44
64918;HTU21D;52176;44.858;38.372;2023-02-17T10:41:20;6.68;78.82
64918;HTU21D;52176;44.858;38.372;2023-02-17T10:43:47;7.00;78.35
64918;HTU21D;52176;44.858;38.372;2023-02-17T10:46:14;7.17;78.05
64918;HTU21D;52176;44.858;38.372;2023-02-17T10:48:45;7.27;77.88
64918;HTU21D;52176;44.858;38.372;2023-02-17T10:51:16;7.30;77.99
64918;HTU21D;52176;44.858;38.372;2023-02-17T10:53:43;7.30;77.95
64918;HTU21D;52176;44.858;38.372;2023-02-17T10:56:31;7.28;78.04
64918;HTU21D;52176;44.858;38.372;2023-02-17T10:59:01;7.26;78.18
64918;HTU21D;52176;44.858;38.372;2023-02-17T11:01:31;7.14;79.10
64918;HTU21D;52176;44.858;38.372;2023-02-17T11:04:04;7.37;78.58
64918;HTU21D;52176;44.858;38.372;2023-02-17T11:06:30;7.40;78.26
64918;HTU21D;52176;44.858;38.372;2023-02-17T11:08:59;7.26;78.50
64918;HTU21D;52176;44.858;38.372;2023-02-17T11:11:28;7.29;78.16
64918;HTU21D;52176;44.858;38.372;2023-02-17T11:16:24;7.50;77.98
64918;HTU21D;52176;44.858;38.372;2023-02-17T11:18:50;7.61;77.71
64918;HTU21D;52176;44.858;38.372;2023-02-17T11:21:17;7.68;77.17
64918;HTU21D;52176;44.858;38.372;2023-02-17T11:23:54;7.72;76.94
64918;HTU21D;52176;44.858;38.372;2023-02-17T11:26:22;7.76;76.66
64918;HTU21D;52176;44.858;38.372;2023-02-17T11:28:48;7.97;75.98
64918;HTU21D;52176;44.858;38.372;2023-02-17T11:31:27;7.93;76.10
64918;HTU21D;52176;44.858;38.372;2023-02-17T11:33:54;7.86;77.01
64918;HTU21D;52176;44.858;38.372;2023-02-17T11:36:24;8.02;76.34
64918;HTU21D;52176;44.858;38.372;2023-02-17T11:38:50;7.79;76.40
64918;HTU21D;52176;44.858;38.372;2023-02-17T11:41:16;7.72;76.89
64918;HTU21D;52176;44.858;38.372;2023-02-17T11:43:52;7.86;77.06
64918;HTU21D;52176;44.858;38.372;2023-02-17T11:46:39;8.02;76.33
64918;HTU21D;52176;44.858;38.372;2023-02-17T11:49:22;8.12;75.83
64918;HTU21D;52176;44.858;38.372;2023-02-17T11:56:59;8.24;74.90
64918;HTU21D;52176;44.858;38.372;2023-02-17T12:07:26;7.77;76.16
64918;HTU21D;52176;44.858;38.372;2023-02-17T12:36:02;7.39;78.40
64918;HTU21D;52176;44.858;38.372;2023-02-17T12:38:30;7.56;77.50
64918;HTU21D;52176;44.858;38.372;2023-02-17T12:41:04;7.49;77.29
64918;HTU21D;52176;44.858;38.372;2023-02-17T12:43:38;7.34;77.38
64918;HTU21D;52176;44.858;38.372;2023-02-17T12:46:13;7.13;78.69
64918;HTU21D;52176;44.858;38.372;2023-02-17T12:53:50;7.47;77.85
64918;HTU21D;52176;44.858;38.372;2023-02-17T12:58:48;7.32;78.22
64918;HTU21D;52176;44.858;38.372;2023-02-17T13:01:14;7.48;77.71
64918;HTU21D;52176;44.858;38.372;2023-02-17T13:03:43;7.50;77.56
64918;HTU21D;52176;44.858;38.372;2023-02-17T13:08:45;7.29;78.28
64918;HTU21D;52176;44.858;38.372;2023-02-17T13:11:24;7.34;78.07
64918;HTU21D;52176;44.858;38.372;2023-02-17T13:13:51;7.44;77.84
64918;HTU21D;52176;44.858;38.372;2023-02-17T13:16:16;7.56;77.63
64918;HTU21D;52176;44.858;38.372;2023-02-17T13:18:43;7.63;77.18
64918;HTU21D;52176;44.858;38.372;2023-02-17T13:23:56;7.72;76.73
64918;HTU21D;52176;44.858;38.372;2023-02-17T13:26:24;7.71;76.53
64918;HTU21D;52176;44.858;38.372;2023-02-17T13:28:51;7.81;76.00
64918;HTU21D;52176;44.858;38.372;2023-02-17T13:31:24;7.70;75.98
64918;HTU21D;52176;44.858;38.372;2023-02-17T13:33:54;7.57;76.19
64918;HTU21D;52176;44.858;38.372;2023-02-17T13:36:32;7.44;76.43
64918;HTU21D;52176;44.858;38.372;2023-02-17T13:38:59;7.24;77.52
64918;HTU21D;52176;44.858;38.372;2023-02-17T13:41:32;7.33;76.99
64918;HTU21D;52176;44.858;38.372;2023-02-17T13:44:03;7.26;76.97
64918;HTU21D;52176;44.858;38.372;2023-02-17T13:46:30;7.18;77.14
64918;HTU21D;52176;44.858;38.372;2023-02-17T13:49:03;7.04;78.26
64918;HTU21D;52176;44.858;38.372;2023-02-17T13:51:30;7.10;78.67
64918;HTU21D;52176;44.858;38.372;2023-02-17T13:54:02;7.23;77.84
64918;HTU21D;52176;44.858;38.372;2023-02-17T13:56:29;7.16;78.31
64918;HTU21D;52176;44.858;38.372;2023-02-17T13:59:08;7.30;77.65
64918;HTU21D;52176;44.858;38.372;2023-02-17T14:01:35;7.23;77.44
64918;HTU21D;52176;44.858;38.372;2023-02-17T14:04:02;7.16;77.46
64918;HTU21D;52176;44.858;38.372;2023-02-17T14:06:29;7.08;77.58
64918;HTU21D;52176;44.858;38.372;2023-02-17T14:08:55;6.91;78.31
64918;HTU21D;52176;44.858;38.372;2023-02-17T14:11:25;6.94;78.33
64918;HTU21D;52176;44.858;38.372;2023-02-17T14:13:52;7.01;78.05
64918;HTU21D;52176;44.858;38.372;2023-02-17T14:16:32;7.15;77.34
64918;HTU21D;52176;44.858;38.372;2023-02-17T14:21:31;6.94;77.23
64918;HTU21D;52176;44.858;38.372;2023-02-17T14:23:57;6.73;77.35
64918;HTU21D;52176;44.858;38.372;2023-02-17T14:26:45;6.51;78.31
64918;HTU21D;52176;44.858;38.372;2023-02-17T14:29:10;6.53;78.27
64918;HTU21D;52176;44.858;38.372;2023-02-17T14:31:38;6.66;77.67
64918;HTU21D;52176;44.858;38.372;2023-02-17T14:34:04;6.53;78.17
64918;HTU21D;52176;44.858;38.372;2023-02-17T14:36:32;6.54;78.00
64918;HTU21D;52176;44.858;38.372;2023-02-17T14:38:58;6.58;77.69
64918;HTU21D;52176;44.858;38.372;2023-02-17T14:41:24;6.68;77.08
64918;HTU21D;52176;44.858;38.372;2023-02-17T14:43:51;6.57;77.57
64918;HTU21D;52176;44.858;38.372;2023-02-17T14:46:16;6.66;77.08
64918;HTU21D;52176;44.858;38.372;2023-02-17T14:48:45;6.53;77.60
64918;HTU21D;52176;44.858;38.372;2023-02-17T14:51:11;6.57;77.62
64918;HTU21D;52176;44.858;38.372;2023-02-17T14:53:37;6.61;77.55
64918;HTU21D;52176;44.858;38.372;2023-02-17T14:58:30;6.67;77.01
64918;HTU21D;52176;44.858;38.372;2023-02-17T15:00:57;6.80;76.28
64918;HTU21D;52176;44.858;38.372;2023-02-17T15:03:23;6.74;76.24
64918;HTU21D;52176;44.858;38.372;2023-02-17T15:05:49;6.57;76.46
64918;HTU21D;52176;44.858;38.372;2023-02-17T15:08:19;6.36;77.45
64918;HTU21D;52176;44.858;38.372;2023-02-17T15:10:46;6.40;77.12
64918;HTU21D;52176;44.858;38.372;2023-02-17T15:13:14;6.36;77.03
64918;HTU21D;52176;44.858;38.372;2023-02-17T15:15:40;6.25;77.87
64918;HTU21D;52176;44.858;38.372;2023-02-17T15:18:10;6.28;77.42
64918;HTU21D;52176;44.858;38.372;2023-02-17T15:20:36;6.27;77.27
64918;HTU21D;52176;44.858;38.372;2023-02-17T15:23:02;6.20;77.34
64918;HTU21D;52176;44.858;38.372;2023-02-17T15:25:29;6.11;77.49
64918;HTU21D;52176;44.858;38.372;2023-02-17T15:27:56;6.02;78.18
64918;HTU21D;52176;44.858;38.372;2023-02-17T15:30:22;6.11;78.21
64918;HTU21D;52176;44.858;38.372;2023-02-17T15:32:47;6.20;77.53
64918;HTU21D;52176;44.858;38.372;2023-02-17T15:35:14;6.14;78.05
64918;HTU21D;52176;44.858;38.372;2023-02-17T15:37:47;6.22;77.49
64918;HTU21D;52176;44.858;38.372;2023-02-17T15:40:14;6.16;77.38
64918;HTU21D;52176;44.858;38.372;2023-02-17T15:42:41;6.08;77.42
64918;HTU21D;52176;44.858;38.372;2023-02-17T15:45:09;5.98;77.57
64918;HTU21D;52176;44.858;38.372;2023-02-17T15:47:35;5.87;78.41
64918;HTU21D;52176;44.858;38.372;2023-02-17T15:50:01;5.97;77.95
64918;HTU21D;52176;44.858;38.372;2023-02-17T15:52:28;5.94;77.74
64918;HTU21D;52176;44.858;38.372;2023-02-17T15:54:54;5.84;77.76
64918;HTU21D;52176;44.858;38.372;2023-02-17T15:57:23;5.80;77.92
64918;HTU21D;52176;44.858;38.372;2023-02-17T15:59:50;5.71;77.92
64918;HTU21D;52176;44.858;38.372;2023-02-17T16:02:20;5.67;78.40
64918;HTU21D;52176;44.858;38.372;2023-02-17T16:04:46;5.82;78.22
64918;HTU21D;52176;44.858;38.372;2023-02-17T16:07:13;5.95;77.66
64918;HTU21D;52176;44.858;38.372;2023-02-17T16:09:38;5.96;77.47
64918;HTU21D;52176;44.858;38.372;2023-02-17T16:12:07;5.91;77.21
64918;HTU21D;52176;44.858;38.372;2023-02-17T16:14:37;5.87;77.35
64918;HTU21D;52176;44.858;38.372;2023-02-17T16:17:03;5.80;77.65
64918;HTU21D;52176;44.858;38.372;2023-02-17T16:19:35;5.87;77.32
64918;HTU21D;52176;44.858;38.372;2023-02-17T16:22:01;5.90;77.18
64918;HTU21D;52176;44.858;38.372;2023-02-17T16:24:27;6.00;76.82
64918;HTU21D;52176;44.858;38.372;2023-02-17T16:26:52;6.00;76.64
64918;HTU21D;52176;44.858;38.372;2023-02-17T16:29:20;5.91;76.77
64918;HTU21D;52176;44.858;38.372;2023-02-17T16:31:46;5.98;76.32
64918;HTU21D;52176;44.858;38.372;2023-02-17T16:34:16;6.13;75.95
64918;HTU21D;52176;44.858;38.372;2023-02-17T16:36:42;6.08;76.05
64918;HTU21D;52176;44.858;38.372;2023-02-17T16:39:10;6.16;75.75
64918;HTU21D;52176;44.858;38.372;2023-02-17T16:41:36;6.26;75.18
64918;HTU21D;52176;44.858;38.372;2023-02-17T16:44:02;6.41;74.70
64918;HTU21D;52176;44.858;38.372;2023-02-17T16:46:32;6.39;74.80
64918;HTU21D;52176;44.858;38.372;2023-02-17T16:48:59;6.25;75.55
64918;HTU21D;52176;44.858;38.372;2023-02-17T16:51:25;6.30;75.27
64918;HTU21D;52176;44.858;38.372;2023-02-17T16:53:51;6.28;75.23